Time;durP1;ratioP1;P1;durP2;ratioP2;P2;SDS_P1;SDS_P2;PMS_P1;PMS_P2;Temp;Humidity;BMP_temperature;BMP_pressure;BME280_temperature;BME280_humidity;BME280_pressure;Samples;Min_cycle;Max_cycle;Signal;HPM_P1;HPM_P2
2022/08/16 00:01:54;;;;;;;2.80;2.70;;;25.00;44.30;;;;;;5081018;27;20453;-79
2022/08/16 00:04:19;;;;;;;3.20;3.00;;;25.00;44.30;;;;;;5067748;27;20837;-58
2022/08/16 00:06:45;;;;;;;3.40;3.20;;;25.00;44.30;;;;;;5078269;28;20232;-61
2022/08/16 00:09:11;;;;;;;2.80;2.70;;;25.00;44.30;;;;;;5080136;27;20566;-66
2022/08/16 00:11:37;;;;;;;3.00;2.80;;;25.00;44.30;;;;;;5074204;27;20225;-63
2022/08/16 00:14:06;;;;;;;3.17;3.00;;;25.00;44.30;;;;;;5077946;28;20220;-68
2022/08/16 00:16:32;;;;;;;3.43;3.23;;;25.00;44.40;;;;;;5072884;28;20441;-59
2022/08/16 00:18:59;;;;;;;3.10;2.90;;;25.00;44.40;;;;;;5077133;27;20457;-66
2022/08/16 00:21:25;;;;;;;3.33;3.13;;;25.10;44.40;;;;;;5079931;28;20243;-69
2022/08/16 00:23:50;;;;;;;3.30;3.10;;;25.10;44.30;;;;;;5072845;28;20457;-58
2022/08/16 00:26:16;;;;;;;3.37;2.80;;;25.00;44.40;;;;;;5076055;28;20229;-59
2022/08/16 00:28:41;;;;;;;2.77;2.67;;;25.10;44.40;;;;;;5071727;27;20240;-60
2022/08/16 00:31:07;;;;;;;3.20;3.00;;;25.00;44.40;;;;;;5082156;28;20247;-61
2022/08/16 00:33:32;;;;;;;3.00;2.80;;;25.00;44.40;;;;;;5076213;27;20809;-58
2022/08/16 00:35:58;;;;;;;3.17;3.07;;;25.00;44.40;;;;;;5074556;28;20232;-61
2022/08/16 00:38:23;;;;;;;3.00;2.90;;;25.00;44.30;;;;;;5075861;28;20565;-62
2022/08/16 00:40:51;;;;;;;2.70;2.60;;;25.00;44.40;;;;;;5073283;27;20224;-58
2022/08/16 00:43:24;;;;;;;3.03;2.83;;;25.00;44.40;;;;;;5076946;27;20762;-62
2022/08/16 00:45:59;;;;;;;3.10;3.00;;;25.00;44.40;;;;;;5068631;28;20519;-60
2022/08/16 00:48:24;;;;;;;2.80;2.70;;;25.00;44.40;;;;;;5073883;27;20468;-58
2022/08/16 00:50:50;;;;;;;3.10;2.90;;;25.00;44.40;;;;;;5068448;28;20441;-64
2022/08/16 00:53:17;;;;;;;2.90;2.70;;;25.00;44.40;;;;;;5085527;28;20232;-59
2022/08/16 00:55:50;;;;;;;3.20;3.00;;;25.00;44.40;;;;;;5071880;27;20284;-59
2022/08/16 00:58:18;;;;;;;3.13;3.03;;;25.00;44.40;;;;;;5071411;27;20575;-67
2022/08/16 01:00:46;;;;;;;3.10;2.93;;;25.00;44.40;;;;;;5079523;27;20540;-61
2022/08/16 01:03:14;;;;;;;3.33;3.13;;;25.00;44.40;;;;;;5075778;27;20480;-67
2022/08/16 01:05:41;;;;;;;3.10;2.90;;;25.00;44.50;;;;;;5077439;27;20433;-61
2022/08/16 01:08:08;;;;;;;3.33;3.13;;;25.00;44.40;;;;;;5071489;27;20467;-64
2022/08/16 01:10:35;;;;;;;3.50;3.30;;;25.00;44.40;;;;;;5068239;27;20473;-58
2022/08/16 01:13:29;;;;;;;2.90;2.80;;;25.00;44.40;;;;;;5069950;27;20753;-60
2022/08/16 01:16:05;;;;;;;3.20;3.10;;;25.00;44.40;;;;;;5061194;27;20467;-58
2022/08/16 01:18:51;;;;;;;2.93;2.80;;;25.00;44.40;;;;;;5073451;27;20439;-74
2022/08/16 01:21:35;;;;;;;2.90;2.70;;;25.00;44.40;;;;;;5074188;27;20565;-66
2022/08/16 01:24:27;;;;;;;2.93;2.83;;;25.00;44.50;;;;;;5081857;27;21030;-58
2022/08/16 01:27:01;;;;;;;3.20;3.00;;;25.00;44.40;;;;;;5080376;27;20476;-59
2022/08/16 01:29:35;;;;;;;3.07;2.93;;;25.00;44.40;;;;;;5073081;27;20442;-63
2022/08/16 01:32:01;;;;;;;3.40;3.20;;;25.00;44.40;;;;;;5080572;27;21006;-58
2022/08/16 01:34:26;;;;;;;2.60;2.50;;;25.00;44.50;;;;;;5073608;27;20445;-63
2022/08/16 01:36:58;;;;;;;3.17;2.97;;;25.00;44.40;;;;;;5080645;27;20247;-61
2022/08/16 01:39:23;;;;;;;2.97;2.87;;;25.00;44.40;;;;;;5065711;27;20220;-59
2022/08/16 01:41:49;;;;;;;3.07;2.87;;;25.00;44.50;;;;;;5077935;28;20488;-60
2022/08/16 01:44:14;;;;;;;2.83;2.73;;;25.00;44.50;;;;;;5062188;28;20311;-63
2022/08/16 01:46:47;;;;;;;3.23;3.03;;;25.00;44.40;;;;;;5075281;28;20213;-64
2022/08/16 01:49:14;;;;;;;3.80;3.60;;;25.00;44.40;;;;;;5073448;28;20224;-62
2022/08/16 01:51:42;;;;;;;2.60;2.50;;;25.00;44.50;;;;;;5074131;27;20484;-64
2022/08/16 01:54:08;;;;;;;3.20;3.00;;;25.00;44.50;;;;;;5069930;28;20452;-64
2022/08/16 01:56:34;;;;;;;2.90;2.80;;;25.00;44.40;;;;;;5071688;27;20449;-58
2022/08/16 01:59:03;;;;;;;2.63;2.50;;;25.00;44.50;;;;;;5075489;28;20223;-60
2022/08/16 02:01:29;;;;;;;3.20;3.00;;;25.00;44.40;;;;;;5074774;28;20457;-63
2022/08/16 02:03:56;;;;;;;2.80;2.70;;;25.00;44.50;;;;;;5068101;27;20988;-58
2022/08/16 02:06:22;;;;;;;3.57;3.37;;;25.00;44.50;;;;;;5082708;27;20234;-63
2022/08/16 02:08:47;;;;;;;3.10;2.90;;;25.00;44.50;;;;;;5064552;28;21048;-66
2022/08/16 02:11:13;;;;;;;2.83;2.73;;;25.00;44.50;;;;;;5063756;27;20232;-62
2022/08/16 02:13:40;;;;;;;3.10;3.00;;;25.00;44.50;;;;;;5075224;28;20216;-58
2022/08/16 02:16:07;;;;;;;2.67;2.57;;;25.00;44.40;;;;;;5078708;28;20222;-59
2022/08/16 02:18:32;;;;;;;2.57;2.47;;;25.00;44.40;;;;;;5069522;27;20442;-65
2022/08/16 02:21:00;;;;;;;3.07;2.87;;;25.00;44.40;;;;;;5081779;28;20469;-63
2022/08/16 02:23:26;;;;;;;3.60;3.37;;;25.00;44.40;;;;;;5073491;27;20244;-71
2022/08/16 02:25:52;;;;;;;3.17;3.07;;;25.00;44.40;;;;;;5078828;27;20536;-67
2022/08/16 02:28:18;;;;;;;3.00;2.90;;;25.00;44.50;;;;;;5064932;27;20228;-67
2022/08/16 02:30:44;;;;;;;3.50;3.13;;;25.00;44.50;;;;;;5057666;27;20451;-61
2022/08/16 02:33:10;;;;;;;3.00;2.90;;;25.00;44.80;;;;;;5075450;27;20986;-66
2022/08/16 02:35:37;;;;;;;3.20;3.00;;;25.00;44.40;;;;;;5074094;28;20503;-59
2022/08/16 02:38:03;;;;;;;2.90;2.80;;;25.00;44.40;;;;;;5059137;27;20430;-72
2022/08/16 02:40:29;;;;;;;3.27;3.07;;;25.00;44.50;;;;;;5062550;28;20458;-62
2022/08/16 02:42:55;;;;;;;3.60;3.40;;;25.00;44.50;;;;;;5065127;28;21206;-73
2022/08/16 02:45:24;;;;;;;3.03;2.83;;;25.00;44.50;;;;;;5070227;27;20220;-70
2022/08/16 02:47:50;;;;;;;3.53;3.33;;;25.00;44.50;;;;;;5062991;27;20274;-62
2022/08/16 02:50:15;;;;;;;3.60;3.40;;;25.00;44.50;;;;;;5062055;28;20460;-58
2022/08/16 02:52:42;;;;;;;3.20;3.03;;;25.00;44.50;;;;;;5075816;27;20216;-59
2022/08/16 02:55:08;;;;;;;3.70;3.50;;;25.00;44.50;;;;;;5079256;28;20212;-62
2022/08/16 02:57:34;;;;;;;3.40;3.20;;;25.00;44.50;;;;;;5067643;28;20517;-67
2022/08/16 03:00:04;;;;;;;3.50;3.33;;;25.00;44.50;;;;;;5070953;27;20444;-63
2022/08/16 03:02:30;;;;;;;3.30;3.20;;;25.00;44.50;;;;;;5077591;27;20265;-59
2022/08/16 03:04:57;;;;;;;3.60;3.40;;;25.00;44.50;;;;;;5078621;27;20495;-61
2022/08/16 03:07:22;;;;;;;3.10;3.00;;;25.00;44.50;;;;;;5077595;28;20263;-71
2022/08/16 03:09:48;;;;;;;3.40;3.20;;;25.00;44.50;;;;;;5073322;28;21631;-60
2022/08/16 03:12:13;;;;;;;2.93;2.80;;;25.00;44.50;;;;;;5070390;28;20748;-61
2022/08/16 03:14:39;;;;;;;3.20;3.00;;;25.00;44.50;;;;;;5069525;27;20268;-77
2022/08/16 03:17:05;;;;;;;3.40;3.30;;;25.00;44.50;;;;;;5068817;28;20698;-60
2022/08/16 03:19:32;;;;;;;3.57;3.37;;;25.00;44.60;;;;;;5073442;28;20677;-60
2022/08/16 03:21:58;;;;;;;3.47;3.30;;;25.00;44.50;;;;;;5059962;28;20278;-72
2022/08/16 03:24:23;;;;;;;3.60;3.40;;;25.00;44.50;;;;;;5067336;28;20477;-58
2022/08/16 03:26:50;;;;;;;2.77;2.67;;;25.00;44.60;;;;;;5074629;28;20292;-65
2022/08/16 03:29:15;;;;;;;3.13;3.03;;;25.00;44.50;;;;;;5076013;28;20220;-58
2022/08/16 03:31:41;;;;;;;4.03;3.63;;;25.00;44.50;;;;;;5075067;28;20455;-58
2022/08/16 03:34:06;;;;;;;3.20;3.07;;;25.00;44.50;;;;;;5077209;28;20706;-63
2022/08/16 03:36:32;;;;;;;3.40;3.20;;;25.00;44.50;;;;;;5079750;28;20270;-66
2022/08/16 03:38:58;;;;;;;2.70;2.60;;;25.00;44.50;;;;;;5069390;28;20227;-66
2022/08/16 03:41:25;;;;;;;3.20;3.00;;;25.00;44.50;;;;;;5069295;27;20316;-68
2022/08/16 03:43:53;;;;;;;3.20;3.00;;;25.00;44.50;;;;;;5067153;27;20221;-62
2022/08/16 03:46:20;;;;;;;3.17;3.07;;;25.00;44.50;;;;;;5068205;27;20808;-59
2022/08/16 03:48:48;;;;;;;3.30;3.10;;;25.00;44.50;;;;;;5077204;28;20475;-59
2022/08/16 03:51:14;;;;;;;2.90;2.80;;;25.00;44.50;;;;;;5078124;28;20466;-63
2022/08/16 03:53:41;;;;;;;3.50;3.30;;;25.00;44.50;;;;;;5081485;28;20443;-61
2022/08/16 03:56:07;;;;;;;3.00;2.80;;;25.00;44.50;;;;;;5081313;27;20456;-63
2022/08/16 03:58:33;;;;;;;3.50;3.20;;;25.00;44.50;;;;;;5079762;27;20448;-63
2022/08/16 04:00:59;;;;;;;3.40;3.20;;;25.00;44.50;;;;;;5078757;27;21210;-58
2022/08/16 04:03:25;;;;;;;3.63;3.43;;;25.00;44.50;;;;;;5081825;27;20472;-58
2022/08/16 04:05:50;;;;;;;3.23;3.03;;;25.00;44.40;;;;;;5082215;27;20228;-60
2022/08/16 04:08:20;;;;;;;3.30;3.10;;;25.00;44.40;;;;;;5083886;27;20995;-60
2022/08/16 04:10:45;;;;;;;3.10;3.00;;;25.00;44.40;;;;;;5088179;27;20227;-59
2022/08/16 04:13:11;;;;;;;3.40;3.10;;;25.00;44.50;;;;;;5083686;27;20453;-72
2022/08/16 04:15:37;;;;;;;3.67;3.47;;;25.00;44.50;;;;;;5084165;27;20321;-59
2022/08/16 04:18:04;;;;;;;3.70;3.50;;;25.00;44.40;;;;;;5082215;27;20223;-65
2022/08/16 04:20:30;;;;;;;3.43;3.23;;;25.00;44.50;;;;;;5072209;27;20959;-73
2022/08/16 04:22:56;;;;;;;3.60;3.40;;;25.00;44.50;;;;;;5079875;27;20468;-74
2022/08/16 04:25:22;;;;;;;3.67;3.47;;;25.00;44.40;;;;;;5064878;27;20560;-63
2022/08/16 04:27:48;;;;;;;3.13;3.03;;;25.00;44.40;;;;;;5071877;27;20457;-62
2022/08/16 04:30:16;;;;;;;3.00;2.90;;;25.00;44.40;;;;;;5061616;27;20446;-62
2022/08/16 04:32:42;;;;;;;3.97;3.57;;;25.00;44.40;;;;;;5067741;28;20513;-78
2022/08/16 04:35:10;;;;;;;3.90;3.60;;;25.00;44.30;;;;;;5074156;27;20476;-65
2022/08/16 04:37:37;;;;;;;3.43;3.23;;;25.00;44.30;;;;;;5070951;28;20449;-62
2022/08/16 04:40:04;;;;;;;3.07;2.97;;;25.10;44.30;;;;;;5070469;27;20460;-69
2022/08/16 04:42:30;;;;;;;3.50;3.40;;;25.10;44.20;;;;;;5066500;28;20564;-73
2022/08/16 04:44:57;;;;;;;4.00;3.80;;;25.10;44.20;;;;;;5064784;27;20868;-60
2022/08/16 04:47:30;;;;;;;3.50;3.30;;;25.10;44.10;;;;;;5060026;27;20225;-64
2022/08/16 04:49:56;;;;;;;4.10;3.80;;;25.10;44.10;;;;;;5073798;27;20557;-62
2022/08/16 04:52:21;;;;;;;3.47;3.27;;;25.10;44.00;;;;;;5057628;28;21239;-73
2022/08/16 04:54:47;;;;;;;3.50;3.30;;;25.10;44.10;;;;;;5063027;27;20229;-64
2022/08/16 04:57:13;;;;;;;3.93;3.73;;;25.10;44.10;;;;;;5068875;28;20574;-70
2022/08/16 04:59:38;;;;;;;4.10;3.90;;;25.10;44.10;;;;;;5064727;27;20302;-60
2022/08/16 05:02:04;;;;;;;3.53;3.33;;;25.10;44.20;;;;;;5067959;27;20594;-61
2022/08/16 05:04:30;;;;;;;3.77;3.57;;;25.00;44.20;;;;;;5071495;27;20220;-60
2022/08/16 05:06:56;;;;;;;3.60;3.40;;;25.00;44.20;;;;;;5066986;28;20224;-59
2022/08/16 05:09:22;;;;;;;4.10;3.87;;;25.00;44.20;;;;;;5078695;28;20502;-64
2022/08/16 05:11:47;;;;;;;3.70;3.50;;;25.00;44.20;;;;;;5072963;28;20879;-68
2022/08/16 05:14:13;;;;;;;3.93;3.73;;;25.00;44.30;;;;;;5057411;27;20222;-67
2022/08/16 05:16:39;;;;;;;3.77;3.57;;;25.00;44.20;;;;;;5069176;28;20212;-68
2022/08/16 05:19:05;;;;;;;3.50;3.30;;;25.00;44.20;;;;;;5063842;27;20275;-62
2022/08/16 05:21:33;;;;;;;3.97;3.77;;;25.00;44.10;;;;;;5065696;27;22032;-67
2022/08/16 05:23:59;;;;;;;3.33;3.13;;;25.10;44.20;;;;;;5061756;28;20225;-64
2022/08/16 05:26:27;;;;;;;4.50;4.07;;;25.00;44.20;;;;;;5066409;27;20508;-60
2022/08/16 05:28:53;;;;;;;3.80;3.60;;;25.00;44.10;;;;;;5072155;28;20216;-64
2022/08/16 05:31:18;;;;;;;3.30;3.10;;;25.00;44.10;;;;;;5071542;27;20461;-67
2022/08/16 05:33:44;;;;;;;3.87;3.67;;;25.00;44.10;;;;;;5064257;28;20220;-62
2022/08/16 05:36:10;;;;;;;3.53;3.23;;;25.00;44.00;;;;;;5072852;28;20223;-66
2022/08/16 05:38:35;;;;;;;3.80;3.60;;;25.00;44.80;;;;;;5084197;28;20307;-60
2022/08/16 05:41:02;;;;;;;4.60;4.30;;;25.00;44.00;;;;;;5076735;28;20324;-61
2022/08/16 05:43:28;;;;;;;4.00;3.80;;;25.00;44.60;;;;;;5068792;28;20227;-60
2022/08/16 05:45:54;;;;;;;3.90;3.60;;;25.00;43.90;;;;;;5075399;28;20446;-60
2022/08/16 05:48:20;;;;;;;4.60;4.40;;;25.00;43.90;;;;;;5076502;28;20510;-62
2022/08/16 05:50:46;;;;;;;4.00;3.80;;;25.00;43.80;;;;;;5072846;28;20848;-60
2022/08/16 05:53:12;;;;;;;4.73;4.23;;;25.00;43.70;;;;;;5082413;27;20253;-65
2022/08/16 05:55:38;;;;;;;4.17;3.97;;;25.00;43.70;;;;;;5082918;28;20299;-63
2022/08/16 05:58:04;;;;;;;3.57;3.37;;;25.00;43.70;;;;;;5071772;27;20471;-60
2022/08/16 06:00:30;;;;;;;3.77;3.57;;;25.00;43.60;;;;;;5086680;27;20596;-61
2022/08/16 06:02:56;;;;;;;4.20;3.80;;;25.00;43.60;;;;;;5076232;28;20229;-73
2022/08/16 06:05:23;;;;;;;3.90;3.70;;;25.00;43.60;;;;;;5083590;27;21383;-63
2022/08/16 06:07:49;;;;;;;4.37;4.17;;;25.00;43.60;;;;;;5080255;28;20797;-59
2022/08/16 06:10:15;;;;;;;3.83;3.63;;;25.00;43.60;;;;;;5070467;28;20461;-64
2022/08/16 06:12:41;;;;;;;3.50;3.33;;;25.00;43.60;;;;;;5070302;27;20458;-60
2022/08/16 06:15:13;;;;;;;3.77;3.57;;;25.00;43.60;;;;;;5082631;27;20442;-64
2022/08/16 06:17:39;;;;;;;4.33;4.00;;;25.00;43.60;;;;;;5072472;27;20317;-68
2022/08/16 06:20:06;;;;;;;4.23;4.03;;;25.00;43.60;;;;;;5073442;28;20476;-64
2022/08/16 06:22:32;;;;;;;4.10;3.90;;;25.00;43.60;;;;;;5077162;27;20500;-61
2022/08/16 06:24:57;;;;;;;3.73;3.53;;;25.00;43.60;;;;;;5062519;27;20552;-62
2022/08/16 06:27:23;;;;;;;4.30;4.00;;;25.00;43.60;;;;;;5072579;27;20442;-62
2022/08/16 06:29:49;;;;;;;4.20;4.00;;;25.00;43.60;;;;;;5072209;27;20295;-60
2022/08/16 06:32:14;;;;;;;4.03;3.70;;;25.00;43.60;;;;;;5077795;28;20298;-65
2022/08/16 06:34:40;;;;;;;5.00;4.60;;;25.00;43.60;;;;;;5083262;28;20216;-67
2022/08/16 06:37:06;;;;;;;3.70;3.40;;;25.00;43.60;;;;;;5071697;27;20277;-63
2022/08/16 06:39:32;;;;;;;3.80;3.60;;;25.00;43.60;;;;;;5076575;28;20220;-64
2022/08/16 06:41:58;;;;;;;5.97;3.63;;;25.00;43.60;;;;;;5083839;27;20303;-64
2022/08/16 06:44:23;;;;;;;3.60;3.40;;;25.00;43.60;;;;;;5064885;28;20316;-67
2022/08/16 06:46:49;;;;;;;4.37;4.17;;;25.00;43.60;;;;;;5068331;27;20524;-82
2022/08/16 06:49:15;;;;;;;6.40;4.43;;;25.00;43.60;;;;;;5075642;27;20602;-60
2022/08/16 06:51:41;;;;;;;8.23;4.10;;;25.00;43.80;;;;;;5076992;27;20225;-65
2022/08/16 06:54:08;;;;;;;5.80;3.47;;;25.00;43.80;;;;;;5078572;27;20230;-60
2022/08/16 06:56:34;;;;;;;3.50;3.30;;;25.00;43.90;;;;;;5062634;27;20503;-59
2022/08/16 06:59:00;;;;;;;5.07;3.70;;;25.00;44.00;;;;;;5071429;27;20441;-59
2022/08/16 07:01:26;;;;;;;3.97;3.50;;;25.00;44.00;;;;;;5067555;27;20519;-63
2022/08/16 07:03:52;;;;;;;3.77;3.57;;;25.00;44.00;;;;;;5078588;27;20329;-64
2022/08/16 07:06:18;;;;;;;4.33;4.13;;;25.00;44.00;;;;;;5073862;28;21018;-64
2022/08/16 07:08:45;;;;;;;3.60;3.40;;;25.00;44.00;;;;;;5069257;27;20531;-65
2022/08/16 07:11:12;;;;;;;4.10;3.80;;;25.00;44.00;;;;;;5080654;27;20474;-61
2022/08/16 07:13:39;;;;;;;4.40;3.00;;;25.00;44.20;;;;;;5086068;27;20470;-63
2022/08/16 07:16:05;;;;;;;4.33;3.93;;;25.00;44.20;;;;;;5074647;27;20434;-60
2022/08/16 07:18:32;;;;;;;3.87;3.67;;;25.00;44.20;;;;;;5077203;27;21422;-59
2022/08/16 07:20:58;;;;;;;3.70;3.50;;;25.00;44.20;;;;;;5071231;27;20922;-58
2022/08/16 07:23:25;;;;;;;3.77;3.47;;;25.00;44.20;;;;;;5078204;28;20453;-59
2022/08/16 07:25:52;;;;;;;5.10;3.40;;;25.00;44.20;;;;;;5081984;27;20296;-65
2022/08/16 07:28:18;;;;;;;11.27;5.17;;;25.00;44.20;;;;;;5074144;28;20456;-73
2022/08/16 07:30:44;;;;;;;8.93;5.37;;;25.00;44.20;;;;;;5080568;28;20453;-61
2022/08/16 07:33:11;;;;;;;4.70;4.37;;;25.00;44.30;;;;;;5067407;27;20209;-65
2022/08/16 07:35:37;;;;;;;4.00;3.60;;;25.10;44.30;;;;;;5070178;28;20511;-65
2022/08/16 07:38:05;;;;;;;9.17;4.37;;;25.10;44.30;;;;;;5081336;28;20434;-60
2022/08/16 07:40:31;;;;;;;4.57;4.10;;;25.10;44.40;;;;;;5078602;27;20221;-60
2022/08/16 07:42:57;;;;;;;4.33;3.80;;;25.00;44.30;;;;;;5074703;27;20466;-70
2022/08/16 07:45:23;;;;;;;4.83;4.20;;;25.10;44.40;;;;;;5082129;28;20448;-61
2022/08/16 07:47:49;;;;;;;3.83;3.43;;;25.10;44.40;;;;;;5072835;28;20224;-60
2022/08/16 07:50:15;;;;;;;5.17;3.90;;;25.10;44.40;;;;;;5074032;27;20224;-63
2022/08/16 07:52:41;;;;;;;4.80;4.37;;;25.10;44.50;;;;;;5082148;27;20256;-64
2022/08/16 07:55:09;;;;;;;3.90;3.57;;;25.10;44.50;;;;;;5080357;27;20525;-65
2022/08/16 07:57:35;;;;;;;4.83;3.67;;;25.10;44.60;;;;;;5073722;28;21064;-60
2022/08/16 08:00:01;;;;;;;7.10;4.03;;;25.10;44.60;;;;;;5085390;27;20437;-60
2022/08/16 08:02:27;;;;;;;5.13;3.80;;;25.10;44.60;;;;;;5066750;28;20228;-69
2022/08/16 08:04:53;;;;;;;3.67;3.37;;;25.10;44.60;;;;;;5081969;27;20311;-70
2022/08/16 08:07:19;;;;;;;7.23;4.27;;;25.10;44.60;;;;;;5080421;27;21015;-60
2022/08/16 08:09:45;;;;;;;4.67;4.40;;;25.10;44.60;;;;;;5078238;28;20541;-70
2022/08/16 08:12:11;;;;;;;4.43;4.03;;;25.10;44.60;;;;;;5080048;27;20223;-66
2022/08/16 08:14:37;;;;;;;4.47;4.20;;;25.10;44.60;;;;;;5081392;28;20309;-60
2022/08/16 08:17:06;;;;;;;4.00;3.80;;;25.10;44.70;;;;;;5086097;27;20228;-61
2022/08/16 08:19:36;;;;;;;4.63;4.30;;;25.10;44.60;;;;;;5075477;28;20232;-67
2022/08/16 08:22:02;;;;;;;4.27;4.07;;;25.10;44.60;;;;;;5069830;28;20495;-62
2022/08/16 08:24:30;;;;;;;3.73;3.40;;;25.10;44.60;;;;;;5068177;28;20449;-61
2022/08/16 08:26:58;;;;;;;5.13;4.20;;;25.10;44.60;;;;;;5064373;27;20454;-64
2022/08/16 08:29:23;;;;;;;3.67;3.47;;;25.10;44.60;;;;;;5079018;28;20445;-62
2022/08/16 08:31:50;;;;;;;3.97;3.67;;;25.10;44.60;;;;;;5069138;27;20528;-61
2022/08/16 08:34:17;;;;;;;5.03;3.63;;;25.10;44.60;;;;;;5079784;27;20254;-64
2022/08/16 08:36:43;;;;;;;4.13;3.80;;;25.10;44.70;;;;;;5074969;28;20498;-65
2022/08/16 08:39:08;;;;;;;4.87;4.03;;;25.10;44.60;;;;;;5084258;27;20456;-61
2022/08/16 08:41:34;;;;;;;4.40;3.43;;;25.10;44.60;;;;;;5082769;27;20444;-60
2022/08/16 08:44:00;;;;;;;4.23;4.00;;;25.10;44.60;;;;;;5077660;28;20216;-60
2022/08/16 08:46:26;;;;;;;4.50;4.10;;;25.10;44.60;;;;;;5092331;27;20213;-66
2022/08/16 08:48:54;;;;;;;4.40;4.10;;;25.10;45.40;;;;;;5086521;27;20696;-61
2022/08/16 08:51:20;;;;;;;4.27;4.07;;;25.10;44.60;;;;;;5074214;28;20456;-61
2022/08/16 08:53:45;;;;;;;4.00;3.80;;;25.00;44.60;;;;;;5087922;28;20521;-66
2022/08/16 08:56:12;;;;;;;4.10;3.90;;;25.10;44.70;;;;;;5078331;27;20508;-65
2022/08/16 08:58:38;;;;;;;4.77;4.47;;;25.10;44.60;;;;;;5072751;28;20209;-61
2022/08/16 09:01:06;;;;;;;4.30;4.00;;;25.00;44.60;;;;;;5072141;27;20519;-66
2022/08/16 09:03:35;;;;;;;4.17;3.77;;;25.00;44.60;;;;;;5078128;27;20944;-72
2022/08/16 09:06:02;;;;;;;4.73;4.40;;;25.00;44.60;;;;;;5081988;28;20451;-66
2022/08/16 09:08:30;;;;;;;4.40;4.20;;;25.00;44.60;;;;;;5068991;28;20453;-62
2022/08/16 09:10:56;;;;;;;4.70;4.30;;;25.00;44.60;;;;;;5068942;27;20941;-61
2022/08/16 09:13:23;;;;;;;5.20;4.50;;;25.10;44.60;;;;;;5070953;27;20453;-65
2022/08/16 09:15:50;;;;;;;4.03;3.83;;;25.00;44.50;;;;;;5081363;27;20463;-61
2022/08/16 09:18:16;;;;;;;4.67;4.37;;;25.10;45.30;;;;;;5076559;27;20453;-70
2022/08/16 09:20:43;;;;;;;4.80;4.40;;;25.10;44.50;;;;;;5082186;27;20994;-64
2022/08/16 09:23:09;;;;;;;4.50;4.20;;;25.10;44.60;;;;;;5085920;28;20589;-62
2022/08/16 09:25:36;;;;;;;4.30;4.00;;;25.10;44.50;;;;;;5077347;27;20475;-69
2022/08/16 09:28:02;;;;;;;4.60;4.40;;;25.10;44.50;;;;;;5077979;27;21401;-67
2022/08/16 09:30:28;;;;;;;4.77;4.47;;;25.00;44.50;;;;;;5075724;27;20452;-65
2022/08/16 09:32:53;;;;;;;4.27;4.07;;;25.10;44.50;;;;;;5078208;27;20448;-65
2022/08/16 09:35:22;;;;;;;4.33;4.03;;;25.10;44.50;;;;;;5079452;28;20236;-60
2022/08/16 09:37:47;;;;;;;4.60;4.40;;;25.00;44.50;;;;;;5074568;27;20221;-68
2022/08/16 09:40:13;;;;;;;5.03;4.77;;;25.00;44.40;;;;;;5070551;27;20524;-67
2022/08/16 09:42:39;;;;;;;3.83;3.60;;;25.10;44.50;;;;;;5069833;28;20236;-62
2022/08/16 09:45:07;;;;;;;4.17;3.97;;;25.10;44.60;;;;;;5072525;27;20220;-60
2022/08/16 09:47:38;;;;;;;4.23;3.93;;;25.10;44.50;;;;;;5073160;28;20616;-64
2022/08/16 09:50:05;;;;;;;5.03;4.63;;;25.10;44.50;;;;;;5078828;28;20784;-60
2022/08/16 09:52:31;;;;;;;4.80;4.20;;;25.10;44.50;;;;;;5076223;27;20491;-70
2022/08/16 09:54:56;;;;;;;4.77;4.47;;;25.10;44.50;;;;;;5074920;27;20832;-65
2022/08/16 09:57:22;;;;;;;5.20;4.90;;;25.10;44.50;;;;;;5069424;27;20576;-62
2022/08/16 09:59:47;;;;;;;4.67;4.27;;;25.00;44.50;;;;;;5073324;27;20705;-75
2022/08/16 10:02:13;;;;;;;5.03;4.23;;;25.00;44.60;;;;;;5069197;27;20689;-66
2022/08/16 10:04:39;;;;;;;5.97;4.73;;;25.10;44.70;;;;;;5077517;28;20243;-66
2022/08/16 10:07:04;;;;;;;4.50;4.20;;;25.10;44.60;;;;;;5074171;27;20858;-62
2022/08/16 10:09:30;;;;;;;5.10;4.80;;;25.10;44.60;;;;;;5075933;27;20227;-70
2022/08/16 10:14:41;;;;;;;3.90;3.70;;;25.10;44.70;;;;;;5071134;27;20746;-65
2022/08/16 10:17:06;;;;;;;5.70;5.40;;;25.10;44.60;;;;;;5080467;27;20522;-62
2022/08/16 10:19:32;;;;;;;5.33;4.67;;;25.10;44.40;;;;;;5072481;27;20470;-67
2022/08/16 10:21:58;;;;;;;5.57;5.07;;;25.10;44.20;;;;;;5075237;27;20225;-68
2022/08/16 10:24:25;;;;;;;4.40;4.10;;;25.00;44.10;;;;;;5063160;28;20458;-61
2022/08/16 10:26:51;;;;;;;4.90;4.50;;;25.10;44.10;;;;;;5073972;27;20503;-61
2022/08/16 10:29:17;;;;;;;4.33;4.03;;;25.10;43.80;;;;;;5077954;28;20449;-64
2022/08/16 10:31:43;;;;;;;4.57;4.27;;;25.10;43.70;;;;;;5074598;27;20442;-69
2022/08/16 10:34:09;;;;;;;4.80;4.40;;;25.10;43.60;;;;;;5070038;28;20449;-74
2022/08/16 10:36:34;;;;;;;4.43;4.10;;;25.10;43.60;;;;;;5064387;27;20251;-61
2022/08/16 10:39:01;;;;;;;3.93;3.67;;;25.10;43.60;;;;;;5070742;27;20227;-60
2022/08/16 10:41:26;;;;;;;4.03;3.77;;;25.10;43.60;;;;;;5078956;27;20227;-61
2022/08/16 10:43:52;;;;;;;4.10;3.90;;;25.00;43.60;;;;;;5075774;27;20528;-69
2022/08/16 10:46:18;;;;;;;4.20;3.90;;;25.00;43.60;;;;;;5058595;27;20293;-67
2022/08/16 10:48:44;;;;;;;4.20;3.90;;;25.00;43.60;;;;;;5070049;28;20243;-67
2022/08/16 10:51:11;;;;;;;5.00;4.80;;;25.00;43.60;;;;;;5070315;28;20220;-62
2022/08/16 10:53:38;;;;;;;4.30;3.87;;;25.10;43.60;;;;;;5079175;27;20436;-61
2022/08/16 10:56:08;;;;;;;8.60;4.80;;;25.10;43.60;;;;;;5077271;27;20462;-61
2022/08/16 10:58:34;;;;;;;4.53;4.33;;;25.10;43.60;;;;;;5065539;27;20484;-67
2022/08/16 11:01:00;;;;;;;5.10;4.73;;;25.10;43.60;;;;;;5078331;27;20502;-62
2022/08/16 11:03:27;;;;;;;4.60;4.40;;;25.10;43.60;;;;;;5077182;27;20452;-61
2022/08/16 11:05:53;;;;;;;4.63;4.23;;;25.10;43.60;;;;;;5078014;27;20223;-61
2022/08/16 11:08:18;;;;;;;4.40;4.20;;;25.10;43.60;;;;;;5077576;27;20505;-61
2022/08/16 11:10:45;;;;;;;4.93;4.50;;;25.10;43.60;;;;;;5075617;28;20220;-63
2022/08/16 11:13:24;;;;;;;4.90;4.60;;;25.10;43.60;;;;;;5083337;27;20220;-60
2022/08/16 11:15:50;;;;;;;5.20;4.90;;;25.10;43.60;;;;;;5086023;27;20481;-73
2022/08/16 11:18:16;;;;;;;5.10;4.80;;;25.10;43.70;;;;;;5080210;27;20449;-61
2022/08/16 11:20:43;;;;;;;5.07;4.77;;;25.10;43.60;;;;;;5083967;27;20811;-63
2022/08/16 11:23:10;;;;;;;4.10;3.90;;;25.10;43.60;;;;;;5081989;27;20785;-63
2022/08/16 11:25:35;;;;;;;4.43;4.23;;;25.10;43.60;;;;;;5082746;27;20994;-64
2022/08/16 11:28:01;;;;;;;4.50;4.30;;;25.10;43.60;;;;;;5080994;28;20453;-60
2022/08/16 11:30:28;;;;;;;4.77;4.50;;;25.10;43.60;;;;;;5076701;27;20224;-66
2022/08/16 11:32:54;;;;;;;4.27;4.07;;;25.10;43.60;;;;;;5081411;27;20455;-62
2022/08/16 11:35:24;;;;;;;5.47;5.17;;;25.10;43.60;;;;;;5077679;27;20472;-68
2022/08/16 11:38:03;;;;;;;5.47;5.17;;;25.10;43.60;;;;;;5078662;27;20457;-60
2022/08/16 11:40:32;;;;;;;4.77;4.57;;;25.10;43.70;;;;;;5082303;27;20452;-60
2022/08/16 11:42:57;;;;;;;4.70;4.50;;;25.10;43.90;;;;;;5081470;27;21933;-60
2022/08/16 11:45:23;;;;;;;5.20;4.93;;;25.10;44.00;;;;;;5067868;27;20465;-64
2022/08/16 11:47:49;;;;;;;4.43;4.23;;;25.10;44.00;;;;;;5076334;27;20224;-60
2022/08/16 11:50:15;;;;;;;4.97;4.67;;;25.10;44.10;;;;;;5072525;28;20878;-63
2022/08/16 11:52:41;;;;;;;4.63;4.43;;;25.10;44.10;;;;;;5079238;27;20452;-60
2022/08/16 11:55:11;;;;;;;4.50;4.20;;;25.10;44.10;;;;;;5071567;28;20449;-62
2022/08/16 11:57:38;;;;;;;4.63;4.43;;;25.10;44.10;;;;;;5075555;27;20499;-62
2022/08/16 12:00:11;;;;;;;4.63;4.43;;;25.10;44.20;;;;;;5074088;27;20449;-66
2022/08/16 12:02:37;;;;;;;4.77;4.57;;;25.10;44.20;;;;;;5076021;28;20550;-64
2022/08/16 12:05:09;;;;;;;4.80;4.60;;;25.00;44.20;;;;;;5078680;27;20523;-60
2022/08/16 12:07:35;;;;;;;5.03;4.73;;;25.10;44.20;;;;;;5069705;27;20227;-66
2022/08/16 12:10:06;;;;;;;5.77;5.47;;;25.00;44.30;;;;;;5078104;27;20446;-60
2022/08/16 12:12:32;;;;;;;5.20;4.90;;;25.00;44.30;;;;;;5074663;27;20224;-64
2022/08/16 12:14:57;;;;;;;4.87;4.47;;;25.00;44.30;;;;;;5088687;27;21167;-60
2022/08/16 12:17:23;;;;;;;4.70;4.50;;;25.00;44.30;;;;;;5073668;27;20227;-63
2022/08/16 12:19:48;;;;;;;5.23;5.03;;;25.00;45.10;;;;;;5090448;28;20243;-60
2022/08/16 12:22:15;;;;;;;5.40;5.00;;;25.00;44.40;;;;;;5086205;28;20311;-64
2022/08/16 12:24:41;;;;;;;5.03;4.83;;;25.00;44.30;;;;;;5076615;28;20304;-64
2022/08/16 12:27:07;;;;;;;4.93;4.73;;;25.00;44.40;;;;;;5086134;27;20569;-64
2022/08/16 12:29:32;;;;;;;4.67;4.47;;;25.10;44.40;;;;;;5079623;27;20212;-64
2022/08/16 12:31:58;;;;;;;4.13;3.93;;;25.00;44.40;;;;;;5081735;27;20228;-61
2022/08/16 12:34:24;;;;;;;4.30;4.10;;;25.00;44.40;;;;;;5092499;27;20224;-66
2022/08/16 12:36:50;;;;;;;5.10;4.80;;;25.00;44.40;;;;;;5088821;27;20277;-63
2022/08/16 12:39:16;;;;;;;4.60;4.40;;;25.00;44.40;;;;;;5084026;27;20454;-60
2022/08/16 12:41:45;;;;;;;4.20;4.00;;;25.00;44.40;;;;;;5081646;27;20710;-63
2022/08/16 12:44:12;;;;;;;4.73;4.50;;;25.00;44.40;;;;;;5082108;27;20447;-62
2022/08/16 12:46:38;;;;;;;4.40;4.20;;;25.00;44.40;;;;;;5082916;27;20457;-62
2022/08/16 12:49:05;;;;;;;4.70;4.50;;;25.00;44.40;;;;;;5072702;27;20442;-61